sensor_id;sensor_type;location;lat;lon;timestamp;temperature;humidity
212;DHT22;16228;48.800;9.002;2022-09-16T00:00:33;13.80;96.90
212;DHT22;16228;48.800;9.002;2022-09-16T00:03:00;13.80;96.90
212;DHT22;16228;48.800;9.002;2022-09-16T00:05:27;13.90;96.90
212;DHT22;16228;48.800;9.002;2022-09-16T00:07:55;13.90;96.90
212;DHT22;16228;48.800;9.002;2022-09-16T00:10:22;13.80;96.90
212;DHT22;16228;48.800;9.002;2022-09-16T00:12:49;13.80;96.90
212;DHT22;16228;48.800;9.002;2022-09-16T00:15:16;13.90;96.90
212;DHT22;16228;48.800;9.002;2022-09-16T00:17:45;13.90;96.90
212;DHT22;16228;48.800;9.002;2022-09-16T00:20:12;14.00;96.90
212;DHT22;16228;48.800;9.002;2022-09-16T00:22:39;14.00;96.90
212;DHT22;16228;48.800;9.002;2022-09-16T00:25:06;14.00;96.90
212;DHT22;16228;48.800;9.002;2022-09-16T00:27:34;14.00;96.90
212;DHT22;16228;48.800;9.002;2022-09-16T00:30:01;13.80;96.90
212;DHT22;16228;48.800;9.002;2022-09-16T00:32:28;13.70;96.90
212;DHT22;16228;48.800;9.002;2022-09-16T00:34:56;13.70;96.90
212;DHT22;16228;48.800;9.002;2022-09-16T00:37:23;13.70;96.90
212;DHT22;16228;48.800;9.002;2022-09-16T00:39:50;13.70;96.90
212;DHT22;16228;48.800;9.002;2022-09-16T00:42:18;13.70;96.90
212;DHT22;16228;48.800;9.002;2022-09-16T00:44:57;13.70;96.90
212;DHT22;16228;48.800;9.002;2022-09-16T00:47:28;13.70;96.90
212;DHT22;16228;48.800;9.002;2022-09-16T00:49:59;13.70;96.90
212;DHT22;16228;48.800;9.002;2022-09-16T00:52:30;13.80;96.90
212;DHT22;16228;48.800;9.002;2022-09-16T00:55:00;13.80;96.90
212;DHT22;16228;48.800;9.002;2022-09-16T00:57:27;13.90;96.90
212;DHT22;16228;48.800;9.002;2022-09-16T00:59:54;13.90;96.90
212;DHT22;16228;48.800;9.002;2022-09-16T01:02:23;13.90;96.90
212;DHT22;16228;48.800;9.002;2022-09-16T01:04:54;13.90;96.90
212;DHT22;16228;48.800;9.002;2022-09-16T01:07:28;14.00;96.90
212;DHT22;16228;48.800;9.002;2022-09-16T01:09:57;14.00;96.90
212;DHT22;16228;48.800;9.002;2022-09-16T01:12:26;14.00;96.90
212;DHT22;16228;48.800;9.002;2022-09-16T01:14:53;14.00;96.90
212;DHT22;16228;48.800;9.002;2022-09-16T01:23:36;14.10;96.90
212;DHT22;16228;48.800;9.002;2022-09-16T01:26:24;14.10;96.90
212;DHT22;16228;48.800;9.002;2022-09-16T01:31:57;14.10;96.90
212;DHT22;16228;48.800;9.002;2022-09-16T01:34:34;14.00;96.90
212;DHT22;16228;48.800;9.002;2022-09-16T01:37:08;14.00;96.90
212;DHT22;16228;48.800;9.002;2022-09-16T01:39:43;13.90;96.90
212;DHT22;16228;48.800;9.002;2022-09-16T01:42:19;13.90;96.90
212;DHT22;16228;48.800;9.002;2022-09-16T01:44:54;14.00;96.90
212;DHT22;16228;48.800;9.002;2022-09-16T01:47:32;13.90;96.90
212;DHT22;16228;48.800;9.002;2022-09-16T01:50:05;13.90;96.90
212;DHT22;16228;48.800;9.002;2022-09-16T01:52:41;13.90;96.90
212;DHT22;16228;48.800;9.002;2022-09-16T01:55:14;13.90;96.90
212;DHT22;16228;48.800;9.002;2022-09-16T01:57:55;13.90;96.90
212;DHT22;16228;48.800;9.002;2022-09-16T02:00:25;13.90;96.90
212;DHT22;16228;48.800;9.002;2022-09-16T02:02:56;14.00;96.90
212;DHT22;16228;48.800;9.002;2022-09-16T02:05:28;14.00;96.90
212;DHT22;16228;48.800;9.002;2022-09-16T02:08:00;13.90;96.90
212;DHT22;16228;48.800;9.002;2022-09-16T02:10:30;13.90;96.90
212;DHT22;16228;48.800;9.002;2022-09-16T02:13:02;14.00;96.90
212;DHT22;16228;48.800;9.002;2022-09-16T02:15:32;14.00;96.90
212;DHT22;16228;48.800;9.002;2022-09-16T02:18:04;14.00;96.90
212;DHT22;16228;48.800;9.002;2022-09-16T02:20:35;14.00;96.90
212;DHT22;16228;48.800;9.002;2022-09-16T02:23:05;14.00;96.90
212;DHT22;16228;48.800;9.002;2022-09-16T02:25:37;13.90;96.90
212;DHT22;16228;48.800;9.002;2022-09-16T02:28:07;13.90;96.90
212;DHT22;16228;48.800;9.002;2022-09-16T02:30:39;13.80;96.90
212;DHT22;16228;48.800;9.002;2022-09-16T02:33:10;13.80;96.90
212;DHT22;16228;48.800;9.002;2022-09-16T02:35:39;13.80;96.90
212;DHT22;16228;48.800;9.002;2022-09-16T02:38:10;13.80;96.90
212;DHT22;16228;48.800;9.002;2022-09-16T02:40:42;13.80;96.90
212;DHT22;16228;48.800;9.002;2022-09-16T02:43:11;13.80;96.90
212;DHT22;16228;48.800;9.002;2022-09-16T02:45:45;13.80;96.90
212;DHT22;16228;48.800;9.002;2022-09-16T02:48:20;13.80;96.90
212;DHT22;16228;48.800;9.002;2022-09-16T02:50:56;13.70;96.90
212;DHT22;16228;48.800;9.002;2022-09-16T02:53:35;13.70;96.90
212;DHT22;16228;48.800;9.002;2022-09-16T02:56:08;13.70;96.90
212;DHT22;16228;48.800;9.002;2022-09-16T02:58:36;13.70;96.90
212;DHT22;16228;48.800;9.002;2022-09-16T03:01:03;13.70;96.90
212;DHT22;16228;48.800;9.002;2022-09-16T03:03:32;13.70;96.90
212;DHT22;16228;48.800;9.002;2022-09-16T03:06:10;13.70;96.90
212;DHT22;16228;48.800;9.002;2022-09-16T03:08:39;13.60;96.90
212;DHT22;16228;48.800;9.002;2022-09-16T03:11:13;13.70;96.90
212;DHT22;16228;48.800;9.002;2022-09-16T03:13:49;13.70;96.90
212;DHT22;16228;48.800;9.002;2022-09-16T03:16:22;13.70;96.90
212;DHT22;16228;48.800;9.002;2022-09-16T03:19:07;13.70;96.90
212;DHT22;16228;48.800;9.002;2022-09-16T03:21:42;13.60;96.90
212;DHT22;16228;48.800;9.002;2022-09-16T03:24:19;13.70;96.90
212;DHT22;16228;48.800;9.002;2022-09-16T03:26:55;13.70;96.90
212;DHT22;16228;48.800;9.002;2022-09-16T03:29:29;13.70;96.90
212;DHT22;16228;48.800;9.002;2022-09-16T03:32:04;13.70;96.90
212;DHT22;16228;48.800;9.002;2022-09-16T03:34:38;13.70;96.90
212;DHT22;16228;48.800;9.002;2022-09-16T03:37:07;13.70;96.90
212;DHT22;16228;48.800;9.002;2022-09-16T03:39:36;13.70;96.90
212;DHT22;16228;48.800;9.002;2022-09-16T03:42:06;13.70;96.90
212;DHT22;16228;48.800;9.002;2022-09-16T03:44:36;13.70;96.90
212;DHT22;16228;48.800;9.002;2022-09-16T03:47:05;13.70;96.90
212;DHT22;16228;48.800;9.002;2022-09-16T03:49:33;13.70;96.90
212;DHT22;16228;48.800;9.002;2022-09-16T03:52:01;13.70;96.90
212;DHT22;16228;48.800;9.002;2022-09-16T03:54:30;13.80;96.90
212;DHT22;16228;48.800;9.002;2022-09-16T03:56:57;13.80;96.90
212;DHT22;16228;48.800;9.002;2022-09-16T03:59:25;13.80;96.90
212;DHT22;16228;48.800;9.002;2022-09-16T04:01:52;13.80;96.90
212;DHT22;16228;48.800;9.002;2022-09-16T04:04:19;13.80;96.90
212;DHT22;16228;48.800;9.002;2022-09-16T04:06:47;13.90;96.90
212;DHT22;16228;48.800;9.002;2022-09-16T04:09:14;13.90;96.90
212;DHT22;16228;48.800;9.002;2022-09-16T04:11:42;13.90;96.90
212;DHT22;16228;48.800;9.002;2022-09-16T04:14:09;13.90;96.90
212;DHT22;16228;48.800;9.002;2022-09-16T04:16:36;13.90;96.90
212;DHT22;16228;48.800;9.002;2022-09-16T04:19:03;13.90;96.90
212;DHT22;16228;48.800;9.002;2022-09-16T04:21:31;13.90;96.90
212;DHT22;16228;48.800;9.002;2022-09-16T04:24:00;13.90;96.90
212;DHT22;16228;48.800;9.002;2022-09-16T04:26:27;13.90;96.90
212;DHT22;16228;48.800;9.002;2022-09-16T04:28:54;13.90;96.90
212;DHT22;16228;48.800;9.002;2022-09-16T04:31:21;13.90;96.90
212;DHT22;16228;48.800;9.002;2022-09-16T04:33:48;13.90;96.90
212;DHT22;16228;48.800;9.002;2022-09-16T04:36:17;13.90;96.90
212;DHT22;16228;48.800;9.002;2022-09-16T04:38:45;13.90;96.90
212;DHT22;16228;48.800;9.002;2022-09-16T04:41:15;13.90;96.90
212;DHT22;16228;48.800;9.002;2022-09-16T04:43:43;13.90;96.90
212;DHT22;16228;48.800;9.002;2022-09-16T04:46:10;13.90;96.90
212;DHT22;16228;48.800;9.002;2022-09-16T04:48:38;13.90;96.90
212;DHT22;16228;48.800;9.002;2022-09-16T04:51:07;13.90;96.90
212;DHT22;16228;48.800;9.002;2022-09-16T04:53:35;13.90;96.90
212;DHT22;16228;48.800;9.002;2022-09-16T04:56:03;13.90;96.90
212;DHT22;16228;48.800;9.002;2022-09-16T04:58:32;14.00;96.90
212;DHT22;16228;48.800;9.002;2022-09-16T05:01:04;14.00;96.90
212;DHT22;16228;48.800;9.002;2022-09-16T05:03:31;14.00;96.90
212;DHT22;16228;48.800;9.002;2022-09-16T05:06:04;14.00;96.90
212;DHT22;16228;48.800;9.002;2022-09-16T05:08:31;14.00;96.90
212;DHT22;16228;48.800;9.002;2022-09-16T05:11:05;14.00;96.90
212;DHT22;16228;48.800;9.002;2022-09-16T05:13:34;14.10;96.90
212;DHT22;16228;48.800;9.002;2022-09-16T05:16:09;14.00;96.90
212;DHT22;16228;48.800;9.002;2022-09-16T05:18:37;14.00;96.90
212;DHT22;16228;48.800;9.002;2022-09-16T05:21:06;14.00;96.90
212;DHT22;16228;48.800;9.002;2022-09-16T05:23:33;14.00;96.90
212;DHT22;16228;48.800;9.002;2022-09-16T05:26:04;14.00;96.90
212;DHT22;16228;48.800;9.002;2022-09-16T05:28:33;14.00;96.90
212;DHT22;16228;48.800;9.002;2022-09-16T05:31:08;14.00;96.90
212;DHT22;16228;48.800;9.002;2022-09-16T05:33:35;14.00;96.90
212;DHT22;16228;48.800;9.002;2022-09-16T05:36:06;13.90;96.90
212;DHT22;16228;48.800;9.002;2022-09-16T05:38:33;13.90;96.90
212;DHT22;16228;48.800;9.002;2022-09-16T05:41:01;13.90;96.90
212;DHT22;16228;48.800;9.002;2022-09-16T05:43:28;13.90;96.90
212;DHT22;16228;48.800;9.002;2022-09-16T05:45:57;13.90;96.90
212;DHT22;16228;48.800;9.002;2022-09-16T05:48:25;14.00;96.90
212;DHT22;16228;48.800;9.002;2022-09-16T05:50:53;14.00;96.90
212;DHT22;16228;48.800;9.002;2022-09-16T05:53:20;14.00;96.90
212;DHT22;16228;48.800;9.002;2022-09-16T05:55:54;13.90;96.90
212;DHT22;16228;48.800;9.002;2022-09-16T05:58:22;13.90;96.90
212;DHT22;16228;48.800;9.002;2022-09-16T06:00:49;13.90;96.90
212;DHT22;16228;48.800;9.002;2022-09-16T06:03:17;14.00;96.90
212;DHT22;16228;48.800;9.002;2022-09-16T06:05:44;13.90;96.90
212;DHT22;16228;48.800;9.002;2022-09-16T06:08:11;13.90;96.90
212;DHT22;16228;48.800;9.002;2022-09-16T06:10:39;13.90;96.90
212;DHT22;16228;48.800;9.002;2022-09-16T06:13:07;13.90;96.90
212;DHT22;16228;48.800;9.002;2022-09-16T06:15:34;13.90;96.90
212;DHT22;16228;48.800;9.002;2022-09-16T06:18:01;13.90;96.90
212;DHT22;16228;48.800;9.002;2022-09-16T06:20:29;13.90;96.90
212;DHT22;16228;48.800;9.002;2022-09-16T06:22:56;13.90;96.90
212;DHT22;16228;48.800;9.002;2022-09-16T06:25:23;13.90;96.90
212;DHT22;16228;48.800;9.002;2022-09-16T06:27:50;13.90;96.90
212;DHT22;16228;48.800;9.002;2022-09-16T06:30:17;13.90;96.90
212;DHT22;16228;48.800;9.002;2022-09-16T06:32:44;13.90;96.90
212;DHT22;16228;48.800;9.002;2022-09-16T06:35:11;14.00;96.90
212;DHT22;16228;48.800;9.002;2022-09-16T06:37:39;14.00;96.90
212;DHT22;16228;48.800;9.002;2022-09-16T06:40:07;13.90;96.90
212;DHT22;16228;48.800;9.002;2022-09-16T06:42:35;14.00;96.90
212;DHT22;16228;48.800;9.002;2022-09-16T06:45:02;13.90;96.90
212;DHT22;16228;48.800;9.002;2022-09-16T06:47:30;13.90;96.90
212;DHT22;16228;48.800;9.002;2022-09-16T06:49:58;13.90;96.90
212;DHT22;16228;48.800;9.002;2022-09-16T06:52:25;13.90;96.90
212;DHT22;16228;48.800;9.002;2022-09-16T06:54:54;13.80;96.90
212;DHT22;16228;48.800;9.002;2022-09-16T06:57:21;13.90;96.90
212;DHT22;16228;48.800;9.002;2022-09-16T06:59:48;13.90;96.90
212;DHT22;16228;48.800;9.002;2022-09-16T07:02:16;13.90;96.90
212;DHT22;16228;48.800;9.002;2022-09-16T07:04:43;13.90;96.90
212;DHT22;16228;48.800;9.002;2022-09-16T07:07:10;13.90;96.90
212;DHT22;16228;48.800;9.002;2022-09-16T07:09:37;13.90;96.90
212;DHT22;16228;48.800;9.002;2022-09-16T07:12:06;13.90;96.90
212;DHT22;16228;48.800;9.002;2022-09-16T07:14:33;13.80;96.90
212;DHT22;16228;48.800;9.002;2022-09-16T07:17:00;13.90;96.90
212;DHT22;16228;48.800;9.002;2022-09-16T07:19:27;13.80;96.90
212;DHT22;16228;48.800;9.002;2022-09-16T07:21:54;13.80;96.90
212;DHT22;16228;48.800;9.002;2022-09-16T07:24:21;13.80;96.90
212;DHT22;16228;48.800;9.002;2022-09-16T07:26:49;13.90;96.90
212;DHT22;16228;48.800;9.002;2022-09-16T07:29:18;13.90;96.90
212;DHT22;16228;48.800;9.002;2022-09-16T07:31:45;13.90;96.90
212;DHT22;16228;48.800;9.002;2022-09-16T07:34:12;14.00;96.90
212;DHT22;16228;48.800;9.002;2022-09-16T07:36:41;14.00;96.90
212;DHT22;16228;48.800;9.002;2022-09-16T07:39:09;14.00;96.90
212;DHT22;16228;48.800;9.002;2022-09-16T07:41:37;14.00;96.90
212;DHT22;16228;48.800;9.002;2022-09-16T07:44:06;14.00;96.90
212;DHT22;16228;48.800;9.002;2022-09-16T07:46:35;14.00;96.90
212;DHT22;16228;48.800;9.002;2022-09-16T07:49:04;14.00;96.90
212;DHT22;16228;48.800;9.002;2022-09-16T07:51:32;14.00;96.90
212;DHT22;16228;48.800;9.002;2022-09-16T07:54:01;14.10;96.90
212;DHT22;16228;48.800;9.002;2022-09-16T07:56:31;14.10;96.90
212;DHT22;16228;48.800;9.002;2022-09-16T07:59:00;14.10;96.90
212;DHT22;16228;48.800;9.002;2022-09-16T08:01:27;14.10;96.90
212;DHT22;16228;48.800;9.002;2022-09-16T08:03:57;14.20;96.90
212;DHT22;16228;48.800;9.002;2022-09-16T08:06:26;14.30;96.90
212;DHT22;16228;48.800;9.002;2022-09-16T08:08:56;14.40;96.90
212;DHT22;16228;48.800;9.002;2022-09-16T08:11:25;14.60;96.90
212;DHT22;16228;48.800;9.002;2022-09-16T08:13:52;14.70;96.90
212;DHT22;16228;48.800;9.002;2022-09-16T08:16:20;14.70;96.90
212;DHT22;16228;48.800;9.002;2022-09-16T08:18:49;14.70;96.90
212;DHT22;16228;48.800;9.002;2022-09-16T08:21:20;14.80;96.90
212;DHT22;16228;48.800;9.002;2022-09-16T08:23:47;14.90;96.90
212;DHT22;16228;48.800;9.002;2022-09-16T08:26:17;15.10;96.90
212;DHT22;16228;48.800;9.002;2022-09-16T08:28:46;15.20;96.90
212;DHT22;16228;48.800;9.002;2022-09-16T08:31:13;15.30;96.90
212;DHT22;16228;48.800;9.002;2022-09-16T08:33:41;15.40;96.90
212;DHT22;16228;48.800;9.002;2022-09-16T08:36:11;15.40;96.90
212;DHT22;16228;48.800;9.002;2022-09-16T08:38:42;15.40;96.90
212;DHT22;16228;48.800;9.002;2022-09-16T08:41:38;15.40;96.90
212;DHT22;16228;48.800;9.002;2022-09-16T08:44:16;15.30;96.90
212;DHT22;16228;48.800;9.002;2022-09-16T08:46:49;15.30;96.90
212;DHT22;16228;48.800;9.002;2022-09-16T08:49:21;15.40;96.90
212;DHT22;16228;48.800;9.002;2022-09-16T08:51:52;15.50;96.90
212;DHT22;16228;48.800;9.002;2022-09-16T08:54:26;15.60;96.90
212;DHT22;16228;48.800;9.002;2022-09-16T08:56:58;15.70;96.90
212;DHT22;16228;48.800;9.002;2022-09-16T08:59:31;15.80;96.90
212;DHT22;16228;48.800;9.002;2022-09-16T09:02:12;15.80;96.90
212;DHT22;16228;48.800;9.002;2022-09-16T09:04:43;15.90;96.90
212;DHT22;16228;48.800;9.002;2022-09-16T09:07:16;15.90;96.90
212;DHT22;16228;48.800;9.002;2022-09-16T09:09:57;15.90;96.90
212;DHT22;16228;48.800;9.002;2022-09-16T09:12:31;15.80;96.90
212;DHT22;16228;48.800;9.002;2022-09-16T09:15:12;15.70;96.90
212;DHT22;16228;48.800;9.002;2022-09-16T09:17:50;15.80;96.90
212;DHT22;16228;48.800;9.002;2022-09-16T09:20:28;15.80;96.90
212;DHT22;16228;48.800;9.002;2022-09-16T09:23:11;15.70;96.90
212;DHT22;16228;48.800;9.002;2022-09-16T09:25:45;15.70;96.90
212;DHT22;16228;48.800;9.002;2022-09-16T09:28:33;15.70;96.90
212;DHT22;16228;48.800;9.002;2022-09-16T09:31:08;15.70;96.90
212;DHT22;16228;48.800;9.002;2022-09-16T09:33:44;15.70;96.90
212;DHT22;16228;48.800;9.002;2022-09-16T09:36:41;15.70;96.90
212;DHT22;16228;48.800;9.002;2022-09-16T09:39:29;15.80;96.90
212;DHT22;16228;48.800;9.002;2022-09-16T09:42:02;15.80;96.90
212;DHT22;16228;48.800;9.002;2022-09-16T09:44:40;15.90;96.90
212;DHT22;16228;48.800;9.002;2022-09-16T09:47:10;16.00;96.90
212;DHT22;16228;48.800;9.002;2022-09-16T09:49:41;16.00;96.90
212;DHT22;16228;48.800;9.002;2022-09-16T09:52:14;16.10;96.90
212;DHT22;16228;48.800;9.002;2022-09-16T09:54:44;16.10;96.90
212;DHT22;16228;48.800;9.002;2022-09-16T09:57:20;15.90;96.90
212;DHT22;16228;48.800;9.002;2022-09-16T09:59:52;15.90;96.90
212;DHT22;16228;48.800;9.002;2022-09-16T10:02:21;15.80;96.90
212;DHT22;16228;48.800;9.002;2022-09-16T10:04:49;15.60;96.90
212;DHT22;16228;48.800;9.002;2022-09-16T10:07:17;15.60;96.90
212;DHT22;16228;48.800;9.002;2022-09-16T10:09:48;15.50;96.90
212;DHT22;16228;48.800;9.002;2022-09-16T10:12:27;15.40;96.90
212;DHT22;16228;48.800;9.002;2022-09-16T10:14:55;15.40;96.90
212;DHT22;16228;48.800;9.002;2022-09-16T10:17:22;15.30;96.90
212;DHT22;16228;48.800;9.002;2022-09-16T10:19:51;15.30;96.90
212;DHT22;16228;48.800;9.002;2022-09-16T10:22:21;15.20;96.90
212;DHT22;16228;48.800;9.002;2022-09-16T10:24:53;15.20;96.90
212;DHT22;16228;48.800;9.002;2022-09-16T10:27:22;15.10;96.90
212;DHT22;16228;48.800;9.002;2022-09-16T10:30:12;15.10;96.90
212;DHT22;16228;48.800;9.002;2022-09-16T10:32:47;15.10;96.90
212;DHT22;16228;48.800;9.002;2022-09-16T10:35:20;15.30;96.90
212;DHT22;16228;48.800;9.002;2022-09-16T10:37:51;15.40;96.90
212;DHT22;16228;48.800;9.002;2022-09-16T10:40:18;15.50;96.90
212;DHT22;16228;48.800;9.002;2022-09-16T10:42:48;15.50;96.90
212;DHT22;16228;48.800;9.002;2022-09-16T10:45:23;15.70;96.90
212;DHT22;16228;48.800;9.002;2022-09-16T10:47:53;15.80;96.90
212;DHT22;16228;48.800;9.002;2022-09-16T10:50:21;16.00;96.90
212;DHT22;16228;48.800;9.002;2022-09-16T10:52:49;16.10;96.90
212;DHT22;16228;48.800;9.002;2022-09-16T10:55:25;16.20;96.90
212;DHT22;16228;48.800;9.002;2022-09-16T10:57:53;16.20;96.90
212;DHT22;16228;48.800;9.002;2022-09-16T11:00:23;16.00;96.90
212;DHT22;16228;48.800;9.002;2022-09-16T11:06:14;15.90;96.90
212;DHT22;16228;48.800;9.002;2022-09-16T11:08:55;15.80;96.90
212;DHT22;16228;48.800;9.002;2022-09-16T11:11:44;15.80;96.90
212;DHT22;16228;48.800;9.002;2022-09-16T11:14:20;15.60;96.90
212;DHT22;16228;48.800;9.002;2022-09-16T11:17:06;15.60;96.90
212;DHT22;16228;48.800;9.002;2022-09-16T11:19:46;15.50;96.90
212;DHT22;16228;48.800;9.002;2022-09-16T11:22:22;15.40;96.90
212;DHT22;16228;48.800;9.002;2022-09-16T11:25:15;15.30;96.90
212;DHT22;16228;48.800;9.002;2022-09-16T11:27:50;15.30;96.90
212;DHT22;16228;48.800;9.002;2022-09-16T11:30:21;15.30;96.90
212;DHT22;16228;48.800;9.002;2022-09-16T11:33:04;15.40;96.90
212;DHT22;16228;48.800;9.002;2022-09-16T11:35:46;15.40;96.90
212;DHT22;16228;48.800;9.002;2022-09-16T11:38:29;15.50;96.90
212;DHT22;16228;48.800;9.002;2022-09-16T11:41:08;15.50;96.90
212;DHT22;16228;48.800;9.002;2022-09-16T11:43:58;15.60;96.90
212;DHT22;16228;48.800;9.002;2022-09-16T11:46:32;15.70;96.90
212;DHT22;16228;48.800;9.002;2022-09-16T11:49:22;15.90;96.90
212;DHT22;16228;48.800;9.002;2022-09-16T11:52:08;16.20;96.90
212;DHT22;16228;48.800;9.002;2022-09-16T11:54:54;16.50;96.90
212;DHT22;16228;48.800;9.002;2022-09-16T11:57:27;16.80;96.90
212;DHT22;16228;48.800;9.002;2022-09-16T12:00:01;17.10;96.90
212;DHT22;16228;48.800;9.002;2022-09-16T12:02:34;17.50;96.90
212;DHT22;16228;48.800;9.002;2022-09-16T12:05:11;17.90;96.90
212;DHT22;16228;48.800;9.002;2022-09-16T12:07:44;18.20;96.90
212;DHT22;16228;48.800;9.002;2022-09-16T12:10:17;18.20;96.90
212;DHT22;16228;48.800;9.002;2022-09-16T12:12:58;18.10;96.90
212;DHT22;16228;48.800;9.002;2022-09-16T12:15:30;18.00;96.90
212;DHT22;16228;48.800;9.002;2022-09-16T12:18:02;18.00;96.90
212;DHT22;16228;48.800;9.002;2022-09-16T12:20:37;18.10;96.90
212;DHT22;16228;48.800;9.002;2022-09-16T12:23:13;18.10;96.90
212;DHT22;16228;48.800;9.002;2022-09-16T12:25:44;18.10;96.90
212;DHT22;16228;48.800;9.002;2022-09-16T12:28:16;18.20;96.90
212;DHT22;16228;48.800;9.002;2022-09-16T12:30:50;18.20;96.90
212;DHT22;16228;48.800;9.002;2022-09-16T12:33:23;18.10;96.90
212;DHT22;16228;48.800;9.002;2022-09-16T12:35:55;17.90;96.90
212;DHT22;16228;48.800;9.002;2022-09-16T12:38:24;17.80;96.90
212;DHT22;16228;48.800;9.002;2022-09-16T12:41:08;17.70;96.90
212;DHT22;16228;48.800;9.002;2022-09-16T12:44:05;17.70;96.90
212;DHT22;16228;48.800;9.002;2022-09-16T12:46:58;17.80;96.90
212;DHT22;16228;48.800;9.002;2022-09-16T12:50:04;17.90;96.90
212;DHT22;16228;48.800;9.002;2022-09-16T12:52:56;17.80;96.90
212;DHT22;16228;48.800;9.002;2022-09-16T13:01:20;17.80;96.90
212;DHT22;16228;48.800;9.002;2022-09-16T13:03:53;18.20;96.90
212;DHT22;16228;48.800;9.002;2022-09-16T13:06:24;19.10;96.90
212;DHT22;16228;48.800;9.002;2022-09-16T13:08:54;20.10;96.90
212;DHT22;16228;48.800;9.002;2022-09-16T13:11:23;21.20;96.90
212;DHT22;16228;48.800;9.002;2022-09-16T13:13:52;21.60;96.10
212;DHT22;16228;48.800;9.002;2022-09-16T13:16:30;21.80;96.90
212;DHT22;16228;48.800;9.002;2022-09-16T13:19:23;22.10;94.10
212;DHT22;16228;48.800;9.002;2022-09-16T13:21:56;21.90;95.30
212;DHT22;16228;48.800;9.002;2022-09-16T13:24:29;21.80;91.80
212;DHT22;16228;48.800;9.002;2022-09-16T13:26:57;21.50;96.90
212;DHT22;16228;48.800;9.002;2022-09-16T13:29:30;21.50;96.20
212;DHT22;16228;48.800;9.002;2022-09-16T13:32:04;21.30;95.90
212;DHT22;16228;48.800;9.002;2022-09-16T13:34:31;21.10;96.90
212;DHT22;16228;48.800;9.002;2022-09-16T13:36:58;20.80;96.90
212;DHT22;16228;48.800;9.002;2022-09-16T13:39:31;20.60;96.90
212;DHT22;16228;48.800;9.002;2022-09-16T13:42:09;20.30;96.90
212;DHT22;16228;48.800;9.002;2022-09-16T13:44:40;19.80;96.90
212;DHT22;16228;48.800;9.002;2022-09-16T13:47:27;19.40;96.90
212;DHT22;16228;48.800;9.002;2022-09-16T13:49:58;19.10;96.90
212;DHT22;16228;48.800;9.002;2022-09-16T13:52:28;18.90;96.90
212;DHT22;16228;48.800;9.002;2022-09-16T13:54:59;18.70;96.90
212;DHT22;16228;48.800;9.002;2022-09-16T13:58:00;18.50;96.90
212;DHT22;16228;48.800;9.002;2022-09-16T14:00:30;18.60;96.90
212;DHT22;16228;48.800;9.002;2022-09-16T14:03:25;19.00;96.90
212;DHT22;16228;48.800;9.002;2022-09-16T14:06:19;19.40;96.90
212;DHT22;16228;48.800;9.002;2022-09-16T14:08:56;19.70;96.90
212;DHT22;16228;48.800;9.002;2022-09-16T14:11:33;19.80;96.90
212;DHT22;16228;48.800;9.002;2022-09-16T14:14:06;19.70;96.90
212;DHT22;16228;48.800;9.002;2022-09-16T14:16:37;19.50;96.90
212;DHT22;16228;48.800;9.002;2022-09-16T14:19:10;19.40;96.90
212;DHT22;16228;48.800;9.002;2022-09-16T14:21:43;19.30;96.90
212;DHT22;16228;48.800;9.002;2022-09-16T14:24:15;19.50;96.90
212;DHT22;16228;48.800;9.002;2022-09-16T14:26:51;19.60;96.90
212;DHT22;16228;48.800;9.002;2022-09-16T14:29:19;19.60;96.90
212;DHT22;16228;48.800;9.002;2022-09-16T14:31:46;19.50;96.90
212;DHT22;16228;48.800;9.002;2022-09-16T14:34:16;19.40;96.90
212;DHT22;16228;48.800;9.002;2022-09-16T14:36:47;19.30;96.90
212;DHT22;16228;48.800;9.002;2022-09-16T14:39:16;19.10;96.90
212;DHT22;16228;48.800;9.002;2022-09-16T14:41:47;18.80;96.90
212;DHT22;16228;48.800;9.002;2022-09-16T14:44:20;18.60;96.90
212;DHT22;16228;48.800;9.002;2022-09-16T14:46:54;18.50;96.90
212;DHT22;16228;48.800;9.002;2022-09-16T14:49:23;18.40;96.90
212;DHT22;16228;48.800;9.002;2022-09-16T14:51:53;18.50;96.90
212;DHT22;16228;48.800;9.002;2022-09-16T14:54:24;18.60;96.90
212;DHT22;16228;48.800;9.002;2022-09-16T14:56:58;18.70;96.90
212;DHT22;16228;48.800;9.002;2022-09-16T14:59:30;18.50;96.90
212;DHT22;16228;48.800;9.002;2022-09-16T15:02:01;18.50;96.90
212;DHT22;16228;48.800;9.002;2022-09-16T15:04:33;18.50;96.90
212;DHT22;16228;48.800;9.002;2022-09-16T15:07:16;18.50;96.90
212;DHT22;16228;48.800;9.002;2022-09-16T15:09:48;18.30;96.90
212;DHT22;16228;48.800;9.002;2022-09-16T15:12:20;18.20;96.90
212;DHT22;16228;48.800;9.002;2022-09-16T15:14:50;18.00;96.90
212;DHT22;16228;48.800;9.002;2022-09-16T15:17:20;17.80;96.90
212;DHT22;16228;48.800;9.002;2022-09-16T15:19:51;17.70;96.90
212;DHT22;16228;48.800;9.002;2022-09-16T15:22:19;17.50;96.90
212;DHT22;16228;48.800;9.002;2022-09-16T15:24:50;17.40;96.90
212;DHT22;16228;48.800;9.002;2022-09-16T15:27:23;17.30;96.90
212;DHT22;16228;48.800;9.002;2022-09-16T15:29:55;17.40;96.90
212;DHT22;16228;48.800;9.002;2022-09-16T15:32:25;17.40;96.90
212;DHT22;16228;48.800;9.002;2022-09-16T15:35:11;17.40;96.90
212;DHT22;16228;48.800;9.002;2022-09-16T15:37:41;17.60;96.90
212;DHT22;16228;48.800;9.002;2022-09-16T15:40:28;17.60;96.90
212;DHT22;16228;48.800;9.002;2022-09-16T15:43:17;17.50;96.90
212;DHT22;16228;48.800;9.002;2022-09-16T15:45:58;17.40;96.90
212;DHT22;16228;48.800;9.002;2022-09-16T15:48:29;17.40;96.90
212;DHT22;16228;48.800;9.002;2022-09-16T15:50:59;17.30;96.90
212;DHT22;16228;48.800;9.002;2022-09-16T15:53:39;17.30;96.90
212;DHT22;16228;48.800;9.002;2022-09-16T15:56:18;17.30;96.90
212;DHT22;16228;48.800;9.002;2022-09-16T15:58:48;17.30;96.90
212;DHT22;16228;48.800;9.002;2022-09-16T16:01:26;17.40;96.90
212;DHT22;16228;48.800;9.002;2022-09-16T16:04:02;17.40;96.90
212;DHT22;16228;48.800;9.002;2022-09-16T16:06:48;17.40;96.90
212;DHT22;16228;48.800;9.002;2022-09-16T16:09:35;17.40;96.90
212;DHT22;16228;48.800;9.002;2022-09-16T16:12:05;17.50;96.90
212;DHT22;16228;48.800;9.002;2022-09-16T16:14:34;17.60;96.90
212;DHT22;16228;48.800;9.002;2022-09-16T16:17:05;17.50;96.90
212;DHT22;16228;48.800;9.002;2022-09-16T16:19:32;17.40;96.90
212;DHT22;16228;48.800;9.002;2022-09-16T16:22:00;17.30;96.90
212;DHT22;16228;48.800;9.002;2022-09-16T16:24:27;17.20;96.90
212;DHT22;16228;48.800;9.002;2022-09-16T16:26:55;17.00;96.90
212;DHT22;16228;48.800;9.002;2022-09-16T16:29:23;16.80;96.90
212;DHT22;16228;48.800;9.002;2022-09-16T16:32:01;16.60;96.90
212;DHT22;16228;48.800;9.002;2022-09-16T16:34:32;16.30;96.90
212;DHT22;16228;48.800;9.002;2022-09-16T16:36:59;16.20;96.90
212;DHT22;16228;48.800;9.002;2022-09-16T16:39:26;16.10;96.90
212;DHT22;16228;48.800;9.002;2022-09-16T16:41:53;15.90;96.90
212;DHT22;16228;48.800;9.002;2022-09-16T16:44:21;15.60;96.90
212;DHT22;16228;48.800;9.002;2022-09-16T16:46:49;15.40;96.90
212;DHT22;16228;48.800;9.002;2022-09-16T16:49:17;15.30;96.90
212;DHT22;16228;48.800;9.002;2022-09-16T16:51:47;15.10;96.90